createdAt,value
2022-12-24T00:01:50.125Z,995.56
2022-12-24T00:05:01.354Z,995.53
2022-12-24T00:07:58.902Z,995.45
2022-12-24T00:11:07.662Z,995.49
2022-12-24T00:14:16.504Z,995.64
2022-12-24T00:17:24.500Z,995.57
2022-12-24T00:20:33.447Z,995.64
2022-12-24T00:23:42.235Z,995.61
2022-12-24T00:26:50.205Z,995.58
2022-12-24T00:29:58.918Z,995.68
2022-12-24T00:33:07.721Z,995.63
2022-12-24T00:36:15.760Z,995.71
2022-12-24T00:39:24.631Z,995.65
2022-12-24T00:42:32.951Z,995.71
2022-12-24T00:45:41.295Z,995.81
2022-12-24T00:48:50.040Z,995.76
2022-12-24T00:51:58.080Z,995.80
2022-12-24T00:55:06.519Z,995.94
2022-12-24T00:58:14.991Z,995.98
2022-12-24T01:01:23.626Z,995.95
2022-12-24T01:04:32.078Z,995.93
2022-12-24T01:07:40.070Z,995.87
2022-12-24T01:10:48.742Z,995.87
2022-12-24T01:13:57.683Z,995.97
2022-12-24T01:17:01.256Z,996.00
2022-12-24T01:20:09.945Z,996.08
2022-12-24T01:23:18.385Z,996.16
2022-12-24T01:26:26.805Z,996.16
2022-12-24T01:29:35.724Z,996.26
2022-12-24T01:32:44.230Z,996.28
2022-12-24T01:35:52.572Z,996.34
2022-12-24T01:39:01.527Z,996.34
2022-12-24T01:42:09.480Z,996.41
2022-12-24T01:45:18.307Z,996.42
2022-12-24T01:48:27.620Z,996.47
2022-12-24T01:51:35.785Z,996.45
2022-12-24T01:54:44.477Z,996.44
2022-12-24T01:57:53.568Z,996.35
2022-12-24T02:01:01.518Z,996.37
2022-12-24T02:04:10.561Z,996.39
2022-12-24T02:07:19.482Z,996.44
2022-12-24T02:10:27.422Z,996.42
2022-12-24T02:13:36.366Z,996.55
2022-12-24T02:16:45.038Z,996.44
2022-12-24T02:19:53.796Z,996.56
2022-12-24T02:23:02.799Z,996.54
2022-12-24T02:26:11.238Z,996.73
2022-12-24T02:29:19.792Z,996.68
2022-12-24T02:32:28.546Z,996.68
2022-12-24T02:35:37.079Z,996.72
2022-12-24T02:38:45.506Z,996.77
2022-12-24T02:41:53.599Z,996.74
2022-12-24T02:45:02.583Z,996.76
2022-12-24T02:48:11.016Z,996.83
2022-12-24T02:51:19.509Z,996.78
2022-12-24T02:54:28.378Z,996.76
2022-12-24T02:57:36.851Z,996.79
2022-12-24T03:00:45.323Z,996.83
2022-12-24T03:03:54.418Z,996.83
2022-12-24T03:07:02.567Z,996.88
2022-12-24T03:10:11.523Z,996.87
2022-12-24T03:13:20.412Z,996.84
2022-12-24T03:16:29.286Z,996.80
2022-12-24T03:19:37.822Z,996.89
2022-12-24T03:22:46.610Z,996.90
2022-12-24T03:25:55.195Z,996.92
2022-12-24T03:29:03.728Z,996.96
2022-12-24T03:32:12.188Z,997.01
2022-12-24T03:35:21.005Z,997.03
2022-12-24T03:38:29.568Z,997.12
2022-12-24T03:41:37.910Z,997.21
2022-12-24T03:44:46.883Z,997.26
2022-12-24T03:47:55.285Z,997.27
2022-12-24T03:51:03.935Z,997.36
2022-12-24T03:54:12.657Z,997.29
2022-12-24T03:57:21.174Z,997.34
2022-12-24T04:00:29.571Z,997.35
2022-12-24T04:03:38.394Z,997.38
2022-12-24T04:06:46.413Z,997.43
2022-12-24T04:09:55.308Z,997.44
2022-12-24T04:13:04.031Z,997.53
2022-12-24T04:16:12.112Z,997.67
2022-12-24T04:19:21.126Z,997.61
2022-12-24T04:22:29.919Z,997.72
2022-12-24T04:25:37.980Z,997.71
2022-12-24T04:28:46.595Z,997.79
2022-12-24T04:31:54.972Z,997.74
2022-12-24T04:35:03.164Z,997.74
2022-12-24T04:38:12.063Z,997.82
2022-12-24T04:41:23.699Z,997.88
2022-12-24T04:44:22.375Z,997.98
2022-12-24T04:47:31.224Z,997.92
2022-12-24T04:50:39.901Z,998.02
2022-12-24T04:53:48.432Z,998.09
2022-12-24T04:56:56.886Z,998.05
2022-12-24T05:00:05.054Z,998.15
2022-12-24T05:03:13.394Z,998.11
2022-12-24T05:06:22.441Z,998.13
2022-12-24T05:09:31.558Z,998.17
2022-12-24T05:12:40.128Z,998.26
2022-12-24T05:15:48.555Z,998.24
2022-12-24T05:18:57.356Z,998.16
2022-12-24T05:22:05.668Z,998.28
2022-12-24T05:25:14.067Z,998.46
2022-12-24T05:28:22.949Z,998.51
2022-12-24T05:31:30.906Z,998.62
2022-12-24T05:34:39.575Z,998.65
2022-12-24T05:37:48.027Z,998.63
2022-12-24T05:40:56.331Z,998.67
2022-12-24T05:44:04.829Z,998.72
2022-12-24T05:47:13.569Z,998.88
2022-12-24T05:50:22.125Z,998.88
2022-12-24T05:53:30.891Z,998.99
2022-12-24T05:56:39.559Z,999.07
2022-12-24T05:59:48.868Z,999.00
2022-12-24T06:02:58.260Z,999.11
2022-12-24T06:06:06.745Z,999.00
2022-12-24T06:09:15.934Z,999.16
2022-12-24T06:12:24.497Z,999.24
2022-12-24T06:15:33.035Z,999.25
2022-12-24T06:18:42.039Z,999.28
2022-12-24T06:21:50.129Z,999.22
2022-12-24T06:24:59.102Z,999.36
2022-12-24T06:28:08.052Z,999.42
2022-12-24T06:31:16.245Z,999.48
2022-12-24T06:34:25.153Z,999.46
2022-12-24T06:37:34.293Z,999.50
2022-12-24T06:40:42.380Z,999.56
2022-12-24T06:43:51.596Z,999.62
2022-12-24T06:47:00.705Z,999.57
2022-12-24T06:50:08.888Z,999.67
2022-12-24T06:53:18.695Z,999.66
2022-12-24T06:56:27.751Z,999.73
2022-12-24T06:59:36.022Z,999.77
2022-12-24T07:02:44.935Z,999.82
2022-12-24T07:05:53.552Z,999.82
2022-12-24T07:09:02.327Z,999.89
2022-12-24T07:12:11.325Z,999.94
2022-12-24T07:15:19.555Z,999.99
2022-12-24T07:18:28.671Z,1000.06
2022-12-24T07:21:37.713Z,1000.09
2022-12-24T07:24:46.904Z,1000.27
2022-12-24T07:27:55.435Z,1000.39
2022-12-24T07:31:04.038Z,1000.33
2022-12-24T07:34:13.319Z,1000.40
2022-12-24T07:37:21.821Z,1000.50
2022-12-24T07:40:30.432Z,1000.49
2022-12-24T07:43:39.025Z,1000.45
2022-12-24T07:46:47.553Z,1000.51
2022-12-24T07:49:56.500Z,1000.59
2022-12-24T07:53:05.159Z,1000.71
2022-12-24T07:56:13.927Z,1000.75
2022-12-24T07:59:23.064Z,1000.85
2022-12-24T08:02:31.665Z,1000.89
2022-12-24T08:05:39.904Z,1000.96
2022-12-24T08:08:48.673Z,1001.05
2022-12-24T08:11:58.519Z,1001.06
2022-12-24T08:15:06.991Z,1001.01
2022-12-24T08:18:16.273Z,1001.05
2022-12-24T08:21:24.394Z,1001.01
2022-12-24T08:24:32.857Z,1001.21
2022-12-24T08:27:41.706Z,1001.24
2022-12-24T08:30:49.752Z,1001.29
2022-12-24T08:33:58.692Z,1001.31
2022-12-24T08:37:07.460Z,1001.39
2022-12-24T08:40:15.410Z,1001.46
2022-12-24T08:43:24.111Z,1001.44
2022-12-24T08:46:32.464Z,1001.49
2022-12-24T08:49:41.251Z,1001.55
2022-12-24T08:52:49.849Z,1001.61
2022-12-24T08:55:58.407Z,1001.73
2022-12-24T08:59:06.957Z,1001.73
2022-12-24T09:02:15.638Z,1001.74
2022-12-24T09:05:24.312Z,1001.81
2022-12-24T09:08:33.291Z,1001.87
2022-12-24T09:11:41.757Z,1001.86
2022-12-24T09:14:50.616Z,1001.89
2022-12-24T09:17:59.606Z,1001.91
2022-12-24T09:21:07.687Z,1002.01
2022-12-24T09:24:16.396Z,1002.07
2022-12-24T09:27:25.240Z,1002.05
2022-12-24T09:30:33.403Z,1002.20
2022-12-24T09:33:42.500Z,1002.28
2022-12-24T09:36:51.211Z,1002.29
2022-12-24T09:39:59.385Z,1002.27
2022-12-24T09:43:08.532Z,1002.30
2022-12-24T09:46:17.269Z,1002.46
2022-12-24T09:49:25.835Z,1002.47
2022-12-24T09:52:34.622Z,1002.42
2022-12-24T09:55:43.322Z,1002.50
2022-12-24T09:58:51.850Z,1002.52
2022-12-24T10:02:00.924Z,1002.57
2022-12-24T10:05:09.678Z,1002.63
2022-12-24T10:08:18.299Z,1002.59
2022-12-24T10:11:27.115Z,1002.59
2022-12-24T10:14:35.548Z,1002.64
2022-12-24T10:17:43.647Z,1002.71
2022-12-24T10:20:51.705Z,1002.66
2022-12-24T10:24:00.970Z,1002.76
2022-12-24T10:27:09.424Z,1002.82
2022-12-24T10:30:17.915Z,1002.86
2022-12-24T10:33:26.982Z,1002.85
2022-12-24T10:36:35.591Z,1002.84
2022-12-24T10:39:43.602Z,1002.88
2022-12-24T10:42:52.433Z,1002.92
2022-12-24T10:46:00.628Z,1002.95
2022-12-24T10:49:09.309Z,1002.96
2022-12-24T10:52:18.063Z,1002.98
2022-12-24T10:55:26.536Z,1003.01
2022-12-24T10:58:34.841Z,1003.05
2022-12-24T11:01:43.797Z,1003.02
2022-12-24T11:04:52.186Z,1003.00
2022-12-24T11:08:00.761Z,1003.06
2022-12-24T11:11:09.384Z,1003.08
2022-12-24T11:14:18.598Z,1003.09
2022-12-24T11:17:27.491Z,1003.04
2022-12-24T11:20:36.219Z,1003.07
2022-12-24T11:23:45.630Z,1003.11
2022-12-24T11:26:53.877Z,1003.08
2022-12-24T11:30:08.064Z,1003.09
2022-12-24T11:33:08.309Z,1003.10
2022-12-24T11:36:16.410Z,1003.14
2022-12-24T11:39:25.263Z,1003.18
2022-12-24T11:42:34.309Z,1003.23
2022-12-24T11:45:42.213Z,1003.26
2022-12-24T11:48:50.854Z,1003.26
2022-12-24T11:51:59.968Z,1003.24
2022-12-24T11:55:15.471Z,1003.20
2022-12-24T11:58:13.557Z,1003.15
2022-12-24T12:01:23.256Z,1003.19
2022-12-24T12:04:31.727Z,1003.19
2022-12-24T12:07:40.618Z,1003.20
2022-12-24T12:10:49.038Z,1003.16
2022-12-24T12:13:57.629Z,1003.27
2022-12-24T12:17:06.148Z,1003.26
2022-12-24T12:20:14.753Z,1003.37
2022-12-24T12:23:24.332Z,1003.39
2022-12-24T12:26:32.619Z,1003.46
2022-12-24T12:29:41.205Z,1003.38
2022-12-24T12:32:50.379Z,1003.43
2022-12-24T12:36:00.119Z,1003.49
2022-12-24T12:39:09.233Z,1003.38
2022-12-24T12:42:17.697Z,1003.49
2022-12-24T12:45:26.863Z,1003.55
2022-12-24T12:48:35.889Z,1003.69
2022-12-24T12:51:43.990Z,1003.66
2022-12-24T12:54:52.932Z,1003.78
2022-12-24T12:58:02.095Z,1003.85
2022-12-24T13:01:11.436Z,1003.90
2022-12-24T13:04:19.948Z,1003.89
2022-12-24T13:07:32.709Z,1003.83
2022-12-24T13:10:32.854Z,1003.84
2022-12-24T13:13:41.173Z,1003.87
2022-12-24T13:16:49.695Z,1003.87
2022-12-24T13:19:58.014Z,1003.96
2022-12-24T13:23:06.454Z,1003.89
2022-12-24T13:26:14.770Z,1003.85
2022-12-24T13:29:23.068Z,1004.03
2022-12-24T13:32:31.233Z,1004.04
2022-12-24T13:35:40.123Z,1004.05
2022-12-24T13:38:48.111Z,1004.10
2022-12-24T13:41:57.032Z,1004.19
2022-12-24T13:45:05.718Z,1004.25
2022-12-24T13:48:14.180Z,1004.24
2022-12-24T13:51:22.839Z,1004.42
2022-12-24T13:54:31.876Z,1004.45
2022-12-24T13:57:40.222Z,1004.47
2022-12-24T14:00:48.841Z,1004.49
2022-12-24T14:03:57.585Z,1004.48
2022-12-24T14:07:06.087Z,1004.51
2022-12-24T14:10:14.655Z,1004.41
2022-12-24T14:13:23.576Z,1004.42
2022-12-24T14:16:32.440Z,1004.43
2022-12-24T14:19:40.833Z,1004.36
2022-12-24T14:22:48.823Z,1004.29
2022-12-24T14:25:57.713Z,1004.30
2022-12-24T14:29:06.179Z,1004.40
2022-12-24T14:32:14.567Z,1004.43
2022-12-24T14:35:23.433Z,1004.47
2022-12-24T14:38:31.876Z,1004.52
2022-12-24T14:41:40.208Z,1004.56
2022-12-24T14:44:48.802Z,1004.67
2022-12-24T14:47:56.778Z,1004.70
2022-12-24T14:51:05.496Z,1004.84
2022-12-24T14:54:14.529Z,1005.47
2022-12-24T14:57:22.904Z,1005.18
2022-12-24T15:00:37.577Z,1005.33
2022-12-24T15:03:36.615Z,1005.41
2022-12-24T15:06:44.566Z,1005.51
2022-12-24T15:09:53.418Z,1005.54
2022-12-24T15:13:01.579Z,1005.52
2022-12-24T15:16:10.340Z,1005.52
2022-12-24T15:19:19.441Z,1005.61
2022-12-24T15:22:27.627Z,1005.68
2022-12-24T15:25:35.904Z,1005.61
2022-12-24T15:28:44.323Z,1005.61
2022-12-24T15:31:52.703Z,1005.89
2022-12-24T15:35:01.081Z,1005.83
2022-12-24T15:38:09.824Z,1005.87
2022-12-24T15:41:09.915Z,1005.94
2022-12-24T15:44:18.367Z,1005.90
2022-12-24T15:47:26.816Z,1005.94
2022-12-24T15:50:35.617Z,1005.90
2022-12-24T15:53:44.218Z,1005.95
2022-12-24T15:56:52.818Z,1005.91
2022-12-24T16:00:01.274Z,1006.00
2022-12-24T16:03:09.489Z,1006.06
2022-12-24T16:06:18.710Z,1006.07
2022-12-24T16:09:27.836Z,1006.10
2022-12-24T16:12:35.960Z,1006.05
2022-12-24T16:15:45.000Z,1006.07
2022-12-24T16:18:53.887Z,1006.10
2022-12-24T16:22:01.903Z,1006.18
2022-12-24T16:25:10.583Z,1006.17
2022-12-24T16:28:22.489Z,1006.26
2022-12-24T16:31:20.483Z,1006.28
2022-12-24T16:34:29.607Z,1006.26
2022-12-24T16:37:38.106Z,1006.22
2022-12-24T16:40:46.337Z,1006.28
2022-12-24T16:43:55.170Z,1006.40
2022-12-24T16:47:03.757Z,1006.43
2022-12-24T16:50:12.216Z,1006.43
2022-12-24T16:53:20.388Z,1006.49
2022-12-24T16:56:29.505Z,1006.51
2022-12-24T16:59:37.965Z,1006.55
2022-12-24T17:02:46.754Z,1006.61
2022-12-24T17:05:55.910Z,1006.59
2022-12-24T17:09:04.352Z,1006.66
2022-12-24T17:12:12.391Z,1006.66
2022-12-24T17:15:21.379Z,1006.71
2022-12-24T17:18:29.952Z,1006.76
2022-12-24T17:21:38.174Z,1006.77
2022-12-24T17:24:47.460Z,1006.91
2022-12-24T17:27:55.605Z,1006.92
2022-12-24T17:31:04.608Z,1006.94
2022-12-24T17:34:13.295Z,1006.89
2022-12-24T17:37:21.712Z,1007.02
2022-12-24T17:40:30.546Z,1006.92
2022-12-24T17:43:39.345Z,1006.91
2022-12-24T17:46:48.057Z,1006.98
2022-12-24T17:49:56.724Z,1006.95
2022-12-24T17:53:05.747Z,1007.03
2022-12-24T17:56:14.193Z,1007.02
2022-12-24T17:59:22.388Z,1006.99
2022-12-24T18:02:31.007Z,1006.96
2022-12-24T18:05:39.728Z,1006.95
2022-12-24T18:08:48.219Z,1007.03
2022-12-24T18:11:56.309Z,1007.06
2022-12-24T18:15:05.079Z,1007.12
2022-12-24T18:18:13.488Z,1007.10
2022-12-24T18:21:22.102Z,1007.25
2022-12-24T18:24:31.074Z,1007.31
2022-12-24T18:27:39.362Z,1007.38
2022-12-24T18:30:47.612Z,1007.48
2022-12-24T18:33:56.307Z,1007.51
2022-12-24T18:37:04.506Z,1007.53
2022-12-24T18:40:13.347Z,1007.47
2022-12-24T18:43:22.312Z,1007.51
2022-12-24T18:46:30.619Z,1007.46
2022-12-24T18:49:39.699Z,1007.52
2022-12-24T18:52:48.447Z,1007.51
2022-12-24T18:55:56.693Z,1007.47
2022-12-24T18:59:05.489Z,1007.50
2022-12-24T19:02:14.369Z,1007.50
2022-12-24T19:05:22.718Z,1007.62
2022-12-24T19:08:56.971Z,1007.54
2022-12-24T19:11:37.029Z,1007.54
2022-12-24T19:14:45.742Z,1007.50
2022-12-24T19:17:54.925Z,1007.48
2022-12-24T19:21:03.279Z,1007.54
2022-12-24T19:24:11.985Z,1007.54
2022-12-24T19:27:20.849Z,1007.53
2022-12-24T19:30:29.152Z,1007.60
2022-12-24T19:33:42.184Z,1007.67
2022-12-24T19:36:40.970Z,1007.73
2022-12-24T19:39:49.962Z,1007.75
2022-12-24T19:42:58.800Z,1007.80
2022-12-24T19:46:07.187Z,1007.81
2022-12-24T19:49:16.462Z,1007.77
2022-12-24T19:52:24.820Z,1007.79
2022-12-24T19:55:33.466Z,1007.84
2022-12-24T19:58:42.541Z,1007.83
2022-12-24T20:01:51.176Z,1007.99
2022-12-24T20:04:59.878Z,1007.97
2022-12-24T20:08:08.706Z,1007.95
2022-12-24T20:11:17.440Z,1008.02
2022-12-24T20:14:25.910Z,1008.00
2022-12-24T20:17:34.489Z,1008.00
2022-12-24T20:20:43.117Z,1008.13
2022-12-24T20:23:51.380Z,1008.14
2022-12-24T20:26:59.641Z,1008.15
2022-12-24T20:30:08.549Z,1008.23
2022-12-24T20:33:16.625Z,1008.28
2022-12-24T20:36:25.411Z,1008.29
2022-12-24T20:39:34.434Z,1008.19
2022-12-24T20:42:42.532Z,1008.24
2022-12-24T20:45:51.700Z,1008.32
2022-12-24T20:49:00.629Z,1008.35
2022-12-24T20:52:08.756Z,1008.39
2022-12-24T20:55:17.745Z,1008.45
2022-12-24T20:58:26.363Z,1008.46
2022-12-24T21:01:35.004Z,1008.54
2022-12-24T21:04:43.983Z,1008.60
2022-12-24T21:07:52.508Z,1008.68
2022-12-24T21:11:00.930Z,1008.61
2022-12-24T21:14:09.911Z,1008.64
2022-12-24T21:17:18.825Z,1008.64
2022-12-24T21:20:27.397Z,1008.56
2022-12-24T21:23:35.475Z,1008.56
2022-12-24T21:26:44.390Z,1008.60
2022-12-24T21:29:53.129Z,1008.62
2022-12-24T21:33:01.360Z,1008.63
2022-12-24T21:36:10.137Z,1008.53
2022-12-24T21:39:18.115Z,1008.58
2022-12-24T21:42:26.203Z,1008.64
2022-12-24T21:45:35.064Z,1008.62
2022-12-24T21:48:44.318Z,1008.67
2022-12-24T21:51:52.329Z,1008.67
2022-12-24T21:55:01.276Z,1008.59
2022-12-24T21:58:09.950Z,1008.58
2022-12-24T22:01:18.759Z,1008.61
2022-12-24T22:04:27.764Z,1008.76
2022-12-24T22:07:36.432Z,1008.77
2022-12-24T22:10:44.673Z,1008.79
2022-12-24T22:13:53.714Z,1008.83
2022-12-24T22:17:02.351Z,1008.87
2022-12-24T22:20:10.945Z,1008.94
2022-12-24T22:23:19.337Z,1008.92
2022-12-24T22:26:27.769Z,1008.98
2022-12-24T22:29:36.127Z,1008.99
2022-12-24T22:32:44.632Z,1009.08
2022-12-24T22:35:53.635Z,1009.05
2022-12-24T22:39:02.496Z,1008.97
2022-12-24T22:42:11.468Z,1009.02
2022-12-24T22:45:22.665Z,1009.04
2022-12-24T22:48:21.037Z,1009.00
2022-12-24T22:51:30.040Z,1008.95
2022-12-24T22:54:39.282Z,1008.86
2022-12-24T22:57:47.569Z,1008.77
2022-12-24T23:00:56.401Z,1008.95
2022-12-24T23:04:05.349Z,1008.91
2022-12-24T23:07:13.902Z,1008.93
2022-12-24T23:10:21.960Z,1008.98
2022-12-24T23:13:31.733Z,1009.05
2022-12-24T23:16:40.550Z,1008.99
2022-12-24T23:19:49.163Z,1009.17
2022-12-24T23:22:58.117Z,1009.10
2022-12-24T23:26:06.587Z,1009.09
2022-12-24T23:29:14.646Z,1009.15
2022-12-24T23:32:23.554Z,1009.08
2022-12-24T23:35:32.541Z,1008.96
2022-12-24T23:38:40.583Z,1008.91
2022-12-24T23:41:49.435Z,1009.02
2022-12-24T23:44:58.334Z,1009.00
2022-12-24T23:48:06.413Z,1008.91
2022-12-24T23:51:15.413Z,1009.02
2022-12-24T23:54:23.920Z,1008.93
2022-12-24T23:57:31.789Z,1008.97
